METAR Data
IDs: Format: Raw Decoded Include TAF

Data at: 1252 UTC 23 Mar 2019

METAR for:KFPK (Charotte/Beach Fld, MI, US)
Text:KFPK 231236Z AUTO 32003KT 10SM CLR M04/M06 A3027 RMK AO2 T10421058
Temperature: -4.2°C ( 24°F)
Dewpoint: -5.8°C ( 22°F) [RH = 89%]
Pressure (altimeter):30.27 inches Hg (1025.1 mb)
Winds:from the NW (320 degrees) at 3 MPH (3 knots; 1.5 m/s)
Visibility:10 or more sm (16+ km)
Ceiling:at least 12,000 feet AGL
Clouds:sky clear below 12,000 feet AGL
QC Flag:automated observation with no human augmentation

TAF for:KFPK (Charotte/Beach Fld, MI, US)
Text:No data found

METAR for:KLAN (Lansing/Capital City, MI, US)
Text:KLAN 231153Z 32005KT 10SM CLR M06/M08 A3027 RMK AO2 SLP261 T10561078 11033 21067 53014
Temperature: -5.6°C ( 22°F)
Dewpoint: -7.8°C ( 18°F) [RH = 84%]
Pressure (altimeter):30.27 inches Hg (1025.1 mb) [Sea level pressure: 1026.1 mb]
Winds:from the NW (320 degrees) at 6 MPH (5 knots; 2.6 m/s)
Visibility:10 or more sm (16+ km)
Ceiling:at least 12,000 feet AGL
Clouds:sky clear below 12,000 feet AGL

TAF for:KLAN (Lansing/Capital City, MI, US) issued at 1140 UTC 23 Mar 2019
Text:KLAN 231140Z 2312/2412 34006KT P6SM SKC
Forecast period:1200 to 1400 UTC 23 March 2019
Forecast type:FROM: standard forecast or significant change
Winds:from the NNW (340 degrees) at 7 MPH (6 knots; 3.1 m/s)
Visibility:6 or more sm (10+ km)
Ceiling:at least 12,000 feet AGL
Clouds:clear skies
Text:FM231400 27008KT P6SM SKC
Forecast period:1400 UTC 23 March 2019 to 0000 UTC 24 March 2019
Forecast type:FROM: standard forecast or significant change
Winds:from the W (270 degrees) at 9 MPH (8 knots; 4.1 m/s)
Visibility:6 or more sm (10+ km)
Ceiling:at least 12,000 feet AGL
Clouds:clear skies
Text:FM240000 21005KT P6SM SKC
Forecast period:0000 to 1200 UTC 24 March 2019
Forecast type:FROM: standard forecast or significant change
Winds:from the SSW (210 degrees) at 6 MPH (5 knots; 2.6 m/s)
Visibility:6 or more sm (10+ km)
Ceiling:at least 12,000 feet AGL
Clouds:clear skies